sensor_id;sensor_type;location;lat;lon;timestamp;P1;durP1;ratioP1;P2;durP2;ratioP2
51148;SDS011;37210;50.058;8.688;2022-09-29T00:01:02;4.38;;;3.05;;
51148;SDS011;37210;50.058;8.688;2022-09-29T00:03:31;3.55;;;2.50;;
51148;SDS011;37210;50.058;8.688;2022-09-29T00:05:58;3.45;;;2.70;;
51148;SDS011;37210;50.058;8.688;2022-09-29T00:08:28;5.65;;;3.15;;
51148;SDS011;37210;50.058;8.688;2022-09-29T00:10:57;6.32;;;3.08;;
51148;SDS011;37210;50.058;8.688;2022-09-29T00:13:24;3.45;;;3.00;;
51148;SDS011;37210;50.058;8.688;2022-09-29T00:15:55;4.22;;;2.78;;
51148;SDS011;37210;50.058;8.688;2022-09-29T00:18:24;3.78;;;2.95;;
51148;SDS011;37210;50.058;8.688;2022-09-29T00:20:55;2.90;;;2.60;;
51148;SDS011;37210;50.058;8.688;2022-09-29T00:23:26;2.83;;;2.55;;
51148;SDS011;37210;50.058;8.688;2022-09-29T00:26:03;3.35;;;2.80;;
51148;SDS011;37210;50.058;8.688;2022-09-29T00:28:33;3.45;;;3.15;;
51148;SDS011;37210;50.058;8.688;2022-09-29T00:31:03;5.82;;;2.70;;
51148;SDS011;37210;50.058;8.688;2022-09-29T00:33:34;3.65;;;3.10;;
51148;SDS011;37210;50.058;8.688;2022-09-29T00:36:05;4.47;;;2.90;;
51148;SDS011;37210;50.058;8.688;2022-09-29T00:38:40;4.63;;;2.97;;
51148;SDS011;37210;50.058;8.688;2022-09-29T00:41:12;3.42;;;2.67;;
51148;SDS011;37210;50.058;8.688;2022-09-29T00:43:46;3.88;;;2.88;;
51148;SDS011;37210;50.058;8.688;2022-09-29T00:46:23;5.00;;;2.90;;
51148;SDS011;37210;50.058;8.688;2022-09-29T00:49:01;3.55;;;3.15;;
51148;SDS011;37210;50.058;8.688;2022-09-29T00:51:37;4.72;;;3.10;;
51148;SDS011;37210;50.058;8.688;2022-09-29T00:54:07;3.72;;;2.97;;
51148;SDS011;37210;50.058;8.688;2022-09-29T00:56:36;3.10;;;2.63;;
51148;SDS011;37210;50.058;8.688;2022-09-29T00:59:08;3.55;;;3.10;;
51148;SDS011;37210;50.058;8.688;2022-09-29T01:01:40;3.00;;;2.75;;
51148;SDS011;37210;50.058;8.688;2022-09-29T01:04:08;3.63;;;3.03;;
51148;SDS011;37210;50.058;8.688;2022-09-29T01:06:44;3.72;;;3.40;;
51148;SDS011;37210;50.058;8.688;2022-09-29T01:09:21;3.25;;;3.00;;
51148;SDS011;37210;50.058;8.688;2022-09-29T01:11:54;3.27;;;2.73;;
51148;SDS011;37210;50.058;8.688;2022-09-29T01:14:23;3.17;;;2.88;;
51148;SDS011;37210;50.058;8.688;2022-09-29T01:16:53;3.78;;;3.20;;
51148;SDS011;37210;50.058;8.688;2022-09-29T01:19:22;5.20;;;3.13;;
51148;SDS011;37210;50.058;8.688;2022-09-29T01:22:07;3.65;;;2.92;;
51148;SDS011;37210;50.058;8.688;2022-09-29T01:24:55;4.35;;;3.10;;
51148;SDS011;37210;50.058;8.688;2022-09-29T01:27:56;4.65;;;3.00;;
51148;SDS011;37210;50.058;8.688;2022-09-29T01:31:02;7.53;;;3.45;;
51148;SDS011;37210;50.058;8.688;2022-09-29T01:33:48;5.97;;;3.15;;
51148;SDS011;37210;50.058;8.688;2022-09-29T01:36:30;3.83;;;2.90;;
51148;SDS011;37210;50.058;8.688;2022-09-29T01:39:11;3.20;;;2.90;;
51148;SDS011;37210;50.058;8.688;2022-09-29T01:41:52;4.15;;;3.03;;
51148;SDS011;37210;50.058;8.688;2022-09-29T01:44:27;4.53;;;3.30;;
51148;SDS011;37210;50.058;8.688;2022-09-29T01:47:02;4.30;;;3.75;;
51148;SDS011;37210;50.058;8.688;2022-09-29T01:49:36;3.60;;;3.17;;
51148;SDS011;37210;50.058;8.688;2022-09-29T01:52:10;3.88;;;2.88;;
51148;SDS011;37210;50.058;8.688;2022-09-29T01:54:43;4.28;;;2.75;;
51148;SDS011;37210;50.058;8.688;2022-09-29T01:57:17;3.30;;;2.67;;
51148;SDS011;37210;50.058;8.688;2022-09-29T01:59:53;3.80;;;3.23;;
51148;SDS011;37210;50.058;8.688;2022-09-29T02:02:31;3.10;;;2.80;;
51148;SDS011;37210;50.058;8.688;2022-09-29T02:05:07;5.13;;;3.10;;
51148;SDS011;37210;50.058;8.688;2022-09-29T02:07:43;3.20;;;2.95;;
51148;SDS011;37210;50.058;8.688;2022-09-29T02:10:15;3.92;;;3.35;;
51148;SDS011;37210;50.058;8.688;2022-09-29T02:12:50;4.43;;;3.13;;
51148;SDS011;37210;50.058;8.688;2022-09-29T02:15:22;4.72;;;3.20;;
51148;SDS011;37210;50.058;8.688;2022-09-29T02:17:58;4.32;;;3.28;;
51148;SDS011;37210;50.058;8.688;2022-09-29T02:20:32;5.93;;;3.20;;
51148;SDS011;37210;50.058;8.688;2022-09-29T02:23:00;4.20;;;3.30;;
51148;SDS011;37210;50.058;8.688;2022-09-29T02:25:27;3.30;;;3.00;;
51148;SDS011;37210;50.058;8.688;2022-09-29T02:27:55;3.05;;;2.80;;
51148;SDS011;37210;50.058;8.688;2022-09-29T02:30:22;3.35;;;2.95;;
51148;SDS011;37210;50.058;8.688;2022-09-29T02:32:50;4.53;;;3.05;;
51148;SDS011;37210;50.058;8.688;2022-09-29T02:35:19;4.80;;;2.75;;
51148;SDS011;37210;50.058;8.688;2022-09-29T02:37:50;8.52;;;3.17;;
51148;SDS011;37210;50.058;8.688;2022-09-29T02:40:36;3.30;;;3.00;;
51148;SDS011;37210;50.058;8.688;2022-09-29T02:43:33;3.33;;;2.72;;
51148;SDS011;37210;50.058;8.688;2022-09-29T02:46:27;4.70;;;3.15;;
51148;SDS011;37210;50.058;8.688;2022-09-29T02:49:14;3.38;;;3.05;;
51148;SDS011;37210;50.058;8.688;2022-09-29T02:52:04;3.50;;;2.70;;
51148;SDS011;37210;50.058;8.688;2022-09-29T02:54:47;4.22;;;3.28;;
51148;SDS011;37210;50.058;8.688;2022-09-29T02:57:31;3.00;;;2.80;;
51148;SDS011;37210;50.058;8.688;2022-09-29T03:00:15;5.07;;;3.05;;
51148;SDS011;37210;50.058;8.688;2022-09-29T03:02:45;3.83;;;3.03;;
51148;SDS011;37210;50.058;8.688;2022-09-29T03:05:13;4.45;;;3.00;;
51148;SDS011;37210;50.058;8.688;2022-09-29T03:07:48;3.60;;;3.30;;
51148;SDS011;37210;50.058;8.688;2022-09-29T03:10:16;3.45;;;3.15;;
51148;SDS011;37210;50.058;8.688;2022-09-29T03:12:44;4.00;;;3.67;;
51148;SDS011;37210;50.058;8.688;2022-09-29T03:15:12;4.25;;;3.65;;
51148;SDS011;37210;50.058;8.688;2022-09-29T03:17:40;4.13;;;3.72;;
51148;SDS011;37210;50.058;8.688;2022-09-29T03:20:08;4.78;;;3.85;;
51148;SDS011;37210;50.058;8.688;2022-09-29T03:22:36;4.78;;;3.97;;
51148;SDS011;37210;50.058;8.688;2022-09-29T03:25:05;4.03;;;3.65;;
51148;SDS011;37210;50.058;8.688;2022-09-29T03:27:34;4.53;;;4.03;;
51148;SDS011;37210;50.058;8.688;2022-09-29T03:30:03;4.85;;;3.97;;
51148;SDS011;37210;50.058;8.688;2022-09-29T03:32:31;5.20;;;4.38;;
51148;SDS011;37210;50.058;8.688;2022-09-29T03:34:59;5.35;;;4.45;;
51148;SDS011;37210;50.058;8.688;2022-09-29T03:37:26;5.60;;;4.57;;
51148;SDS011;37210;50.058;8.688;2022-09-29T03:39:54;5.93;;;5.32;;
51148;SDS011;37210;50.058;8.688;2022-09-29T03:42:23;8.80;;;6.00;;
51148;SDS011;37210;50.058;8.688;2022-09-29T03:44:53;12.20;;;7.82;;
51148;SDS011;37210;50.058;8.688;2022-09-29T03:47:20;17.25;;;7.70;;
51148;SDS011;37210;50.058;8.688;2022-09-29T03:49:49;16.48;;;8.40;;
51148;SDS011;37210;50.058;8.688;2022-09-29T03:52:16;12.48;;;8.65;;
51148;SDS011;37210;50.058;8.688;2022-09-29T03:54:44;17.20;;;9.77;;
51148;SDS011;37210;50.058;8.688;2022-09-29T03:57:11;15.35;;;9.55;;
51148;SDS011;37210;50.058;8.688;2022-09-29T03:59:40;24.02;;;10.45;;
51148;SDS011;37210;50.058;8.688;2022-09-29T04:02:07;17.35;;;10.88;;
51148;SDS011;37210;50.058;8.688;2022-09-29T04:04:35;14.20;;;10.95;;
51148;SDS011;37210;50.058;8.688;2022-09-29T04:07:02;38.28;;;12.82;;
51148;SDS011;37210;50.058;8.688;2022-09-29T04:09:29;39.90;;;14.32;;
51148;SDS011;37210;50.058;8.688;2022-09-29T04:11:57;21.85;;;12.52;;
51148;SDS011;37210;50.058;8.688;2022-09-29T04:14:24;19.98;;;12.68;;
51148;SDS011;37210;50.058;8.688;2022-09-29T04:16:53;19.77;;;13.40;;
51148;SDS011;37210;50.058;8.688;2022-09-29T04:19:21;20.10;;;12.70;;
51148;SDS011;37210;50.058;8.688;2022-09-29T04:21:49;16.98;;;12.55;;
51148;SDS011;37210;50.058;8.688;2022-09-29T04:24:16;19.83;;;12.00;;
51148;SDS011;37210;50.058;8.688;2022-09-29T04:26:44;21.02;;;12.88;;
51148;SDS011;37210;50.058;8.688;2022-09-29T04:29:11;21.10;;;12.57;;
51148;SDS011;37210;50.058;8.688;2022-09-29T04:31:39;26.42;;;12.27;;
51148;SDS011;37210;50.058;8.688;2022-09-29T04:34:08;22.58;;;13.38;;
51148;SDS011;37210;50.058;8.688;2022-09-29T04:36:36;23.90;;;14.43;;
51148;SDS011;37210;50.058;8.688;2022-09-29T04:39:03;21.60;;;13.27;;
51148;SDS011;37210;50.058;8.688;2022-09-29T04:41:31;23.77;;;14.55;;
51148;SDS011;37210;50.058;8.688;2022-09-29T04:44:01;24.13;;;14.15;;
51148;SDS011;37210;50.058;8.688;2022-09-29T04:46:30;21.13;;;12.85;;
51148;SDS011;37210;50.058;8.688;2022-09-29T04:49:02;18.20;;;13.18;;
51148;SDS011;37210;50.058;8.688;2022-09-29T04:51:32;22.17;;;13.35;;
51148;SDS011;37210;50.058;8.688;2022-09-29T04:54:02;23.38;;;13.13;;
51148;SDS011;37210;50.058;8.688;2022-09-29T04:56:30;22.27;;;13.45;;
51148;SDS011;37210;50.058;8.688;2022-09-29T04:58:58;20.08;;;13.35;;
51148;SDS011;37210;50.058;8.688;2022-09-29T05:01:25;23.55;;;14.27;;
51148;SDS011;37210;50.058;8.688;2022-09-29T05:03:54;18.58;;;13.90;;
51148;SDS011;37210;50.058;8.688;2022-09-29T05:06:22;15.57;;;12.32;;
51148;SDS011;37210;50.058;8.688;2022-09-29T05:08:51;18.90;;;12.50;;
51148;SDS011;37210;50.058;8.688;2022-09-29T05:11:19;21.15;;;14.10;;
51148;SDS011;37210;50.058;8.688;2022-09-29T05:13:47;24.40;;;15.05;;
51148;SDS011;37210;50.058;8.688;2022-09-29T05:16:17;24.83;;;13.82;;
51148;SDS011;37210;50.058;8.688;2022-09-29T05:18:48;27.90;;;13.40;;
51148;SDS011;37210;50.058;8.688;2022-09-29T05:21:16;19.83;;;12.30;;
51148;SDS011;37210;50.058;8.688;2022-09-29T05:23:49;15.80;;;12.52;;
51148;SDS011;37210;50.058;8.688;2022-09-29T05:26:18;23.77;;;13.00;;
51148;SDS011;37210;50.058;8.688;2022-09-29T05:28:46;15.00;;;11.73;;
51148;SDS011;37210;50.058;8.688;2022-09-29T05:31:15;21.25;;;13.27;;
51148;SDS011;37210;50.058;8.688;2022-09-29T05:33:44;16.45;;;13.45;;
51148;SDS011;37210;50.058;8.688;2022-09-29T05:36:12;16.88;;;12.60;;
51148;SDS011;37210;50.058;8.688;2022-09-29T05:38:43;20.00;;;13.02;;
51148;SDS011;37210;50.058;8.688;2022-09-29T05:41:14;17.80;;;11.98;;
51148;SDS011;37210;50.058;8.688;2022-09-29T05:43:48;22.38;;;13.00;;
51148;SDS011;37210;50.058;8.688;2022-09-29T05:46:18;21.65;;;12.82;;
51148;SDS011;37210;50.058;8.688;2022-09-29T05:48:50;33.42;;;12.50;;
51148;SDS011;37210;50.058;8.688;2022-09-29T05:51:22;49.00;;;14.68;;
51148;SDS011;37210;50.058;8.688;2022-09-29T05:53:53;20.80;;;13.57;;
51148;SDS011;37210;50.058;8.688;2022-09-29T05:56:22;23.15;;;12.98;;
51148;SDS011;37210;50.058;8.688;2022-09-29T05:58:52;20.83;;;13.10;;
51148;SDS011;37210;50.058;8.688;2022-09-29T06:01:25;25.42;;;13.18;;
51148;SDS011;37210;50.058;8.688;2022-09-29T06:03:53;19.02;;;13.57;;
51148;SDS011;37210;50.058;8.688;2022-09-29T06:06:22;14.07;;;11.77;;
51148;SDS011;37210;50.058;8.688;2022-09-29T06:08:53;19.05;;;13.07;;
51148;SDS011;37210;50.058;8.688;2022-09-29T06:11:23;14.38;;;12.27;;
51148;SDS011;37210;50.058;8.688;2022-09-29T06:13:54;20.90;;;12.20;;
51148;SDS011;37210;50.058;8.688;2022-09-29T06:16:22;19.48;;;13.13;;
51148;SDS011;37210;50.058;8.688;2022-09-29T06:18:53;16.38;;;12.95;;
51148;SDS011;37210;50.058;8.688;2022-09-29T06:21:22;20.15;;;13.80;;
51148;SDS011;37210;50.058;8.688;2022-09-29T06:23:54;16.67;;;13.05;;
51148;SDS011;37210;50.058;8.688;2022-09-29T06:26:24;19.30;;;13.02;;
51148;SDS011;37210;50.058;8.688;2022-09-29T06:28:55;21.35;;;13.88;;
51148;SDS011;37210;50.058;8.688;2022-09-29T06:31:26;16.67;;;12.40;;
51148;SDS011;37210;50.058;8.688;2022-09-29T06:33:57;15.45;;;11.90;;
51148;SDS011;37210;50.058;8.688;2022-09-29T06:36:27;14.95;;;11.45;;
51148;SDS011;37210;50.058;8.688;2022-09-29T06:39:17;15.30;;;11.68;;
51148;SDS011;37210;50.058;8.688;2022-09-29T06:41:45;13.90;;;11.43;;
51148;SDS011;37210;50.058;8.688;2022-09-29T06:44:19;13.05;;;11.10;;
51148;SDS011;37210;50.058;8.688;2022-09-29T06:46:49;12.07;;;10.27;;
51148;SDS011;37210;50.058;8.688;2022-09-29T06:49:18;12.98;;;10.95;;
51148;SDS011;37210;50.058;8.688;2022-09-29T06:51:47;15.15;;;11.30;;
51148;SDS011;37210;50.058;8.688;2022-09-29T06:54:19;11.45;;;10.25;;
51148;SDS011;37210;50.058;8.688;2022-09-29T06:56:53;14.55;;;11.50;;
51148;SDS011;37210;50.058;8.688;2022-09-29T06:59:22;14.35;;;11.38;;
51148;SDS011;37210;50.058;8.688;2022-09-29T07:01:52;12.93;;;11.07;;
51148;SDS011;37210;50.058;8.688;2022-09-29T07:04:21;12.13;;;10.68;;
51148;SDS011;37210;50.058;8.688;2022-09-29T07:06:54;11.32;;;9.40;;
51148;SDS011;37210;50.058;8.688;2022-09-29T07:09:23;12.00;;;10.55;;
51148;SDS011;37210;50.058;8.688;2022-09-29T07:11:51;10.55;;;9.30;;
51148;SDS011;37210;50.058;8.688;2022-09-29T07:14:20;12.02;;;10.82;;
51148;SDS011;37210;50.058;8.688;2022-09-29T07:16:51;12.18;;;10.50;;
51148;SDS011;37210;50.058;8.688;2022-09-29T07:19:19;12.60;;;11.07;;
51148;SDS011;37210;50.058;8.688;2022-09-29T07:21:48;14.70;;;10.55;;
51148;SDS011;37210;50.058;8.688;2022-09-29T07:24:17;12.60;;;10.07;;
51148;SDS011;37210;50.058;8.688;2022-09-29T07:26:45;9.68;;;8.70;;
51148;SDS011;37210;50.058;8.688;2022-09-29T07:29:13;12.63;;;10.10;;
51148;SDS011;37210;50.058;8.688;2022-09-29T07:31:42;10.80;;;9.65;;
51148;SDS011;37210;50.058;8.688;2022-09-29T07:34:11;11.05;;;9.90;;
51148;SDS011;37210;50.058;8.688;2022-09-29T07:36:40;11.93;;;10.18;;
51148;SDS011;37210;50.058;8.688;2022-09-29T07:39:13;12.15;;;10.90;;
51148;SDS011;37210;50.058;8.688;2022-09-29T07:41:41;10.85;;;9.75;;
51148;SDS011;37210;50.058;8.688;2022-09-29T07:44:09;11.48;;;10.27;;
51148;SDS011;37210;50.058;8.688;2022-09-29T07:46:39;11.82;;;10.57;;
51148;SDS011;37210;50.058;8.688;2022-09-29T07:49:08;11.02;;;9.88;;
51148;SDS011;37210;50.058;8.688;2022-09-29T07:51:36;11.90;;;10.07;;
51148;SDS011;37210;50.058;8.688;2022-09-29T07:54:04;10.93;;;9.82;;
51148;SDS011;37210;50.058;8.688;2022-09-29T07:56:31;11.02;;;9.60;;
51148;SDS011;37210;50.058;8.688;2022-09-29T07:59:01;11.00;;;9.88;;
51148;SDS011;37210;50.058;8.688;2022-09-29T08:01:30;12.07;;;10.50;;
51148;SDS011;37210;50.058;8.688;2022-09-29T08:03:58;14.45;;;11.73;;
51148;SDS011;37210;50.058;8.688;2022-09-29T08:06:30;12.60;;;10.90;;
51148;SDS011;37210;50.058;8.688;2022-09-29T08:08:58;13.93;;;12.35;;
51148;SDS011;37210;50.058;8.688;2022-09-29T08:11:27;13.70;;;11.90;;
51148;SDS011;37210;50.058;8.688;2022-09-29T08:13:55;11.55;;;9.80;;
51148;SDS011;37210;50.058;8.688;2022-09-29T08:16:23;11.75;;;10.40;;
51148;SDS011;37210;50.058;8.688;2022-09-29T08:18:51;12.40;;;10.88;;
51148;SDS011;37210;50.058;8.688;2022-09-29T08:21:21;12.63;;;10.05;;
51148;SDS011;37210;50.058;8.688;2022-09-29T08:23:50;13.45;;;11.40;;
51148;SDS011;37210;50.058;8.688;2022-09-29T08:26:21;15.05;;;10.82;;
51148;SDS011;37210;50.058;8.688;2022-09-29T08:28:49;15.25;;;11.77;;
51148;SDS011;37210;50.058;8.688;2022-09-29T08:31:17;13.05;;;11.07;;
51148;SDS011;37210;50.058;8.688;2022-09-29T08:33:49;12.25;;;10.07;;
51148;SDS011;37210;50.058;8.688;2022-09-29T08:36:22;12.35;;;9.90;;
51148;SDS011;37210;50.058;8.688;2022-09-29T08:38:53;11.63;;;10.35;;
51148;SDS011;37210;50.058;8.688;2022-09-29T08:41:28;13.18;;;11.18;;
51148;SDS011;37210;50.058;8.688;2022-09-29T08:44:13;11.82;;;10.50;;
51148;SDS011;37210;50.058;8.688;2022-09-29T08:46:53;13.93;;;11.13;;
51148;SDS011;37210;50.058;8.688;2022-09-29T08:49:26;11.38;;;10.18;;
51148;SDS011;37210;50.058;8.688;2022-09-29T08:52:05;11.75;;;10.23;;
51148;SDS011;37210;50.058;8.688;2022-09-29T08:54:42;13.85;;;9.80;;
51148;SDS011;37210;50.058;8.688;2022-09-29T08:57:21;11.60;;;10.13;;
51148;SDS011;37210;50.058;8.688;2022-09-29T08:59:56;11.15;;;10.05;;
51148;SDS011;37210;50.058;8.688;2022-09-29T09:02:35;12.35;;;10.50;;
51148;SDS011;37210;50.058;8.688;2022-09-29T09:05:44;12.15;;;9.18;;
51148;SDS011;37210;50.058;8.688;2022-09-29T09:08:37;10.27;;;9.18;;
51148;SDS011;37210;50.058;8.688;2022-09-29T09:11:31;12.48;;;10.60;;
51148;SDS011;37210;50.058;8.688;2022-09-29T09:14:18;11.20;;;9.98;;
51148;SDS011;37210;50.058;8.688;2022-09-29T09:17:08;12.02;;;10.18;;
51148;SDS011;37210;50.058;8.688;2022-09-29T09:19:58;12.85;;;9.85;;
51148;SDS011;37210;50.058;8.688;2022-09-29T09:22:39;13.02;;;11.25;;
51148;SDS011;37210;50.058;8.688;2022-09-29T09:25:19;13.35;;;11.02;;
51148;SDS011;37210;50.058;8.688;2022-09-29T09:28:05;11.23;;;10.02;;
51148;SDS011;37210;50.058;8.688;2022-09-29T09:30:45;11.95;;;10.35;;
51148;SDS011;37210;50.058;8.688;2022-09-29T09:33:24;13.18;;;11.13;;
51148;SDS011;37210;50.058;8.688;2022-09-29T09:36:03;10.98;;;9.43;;
51148;SDS011;37210;50.058;8.688;2022-09-29T09:38:43;11.35;;;9.18;;
51148;SDS011;37210;50.058;8.688;2022-09-29T09:41:27;10.93;;;9.77;;
51148;SDS011;37210;50.058;8.688;2022-09-29T09:44:08;10.93;;;9.75;;
51148;SDS011;37210;50.058;8.688;2022-09-29T09:46:44;12.25;;;10.90;;
51148;SDS011;37210;50.058;8.688;2022-09-29T09:49:19;11.73;;;10.00;;
51148;SDS011;37210;50.058;8.688;2022-09-29T09:51:55;11.27;;;9.60;;
51148;SDS011;37210;50.058;8.688;2022-09-29T09:54:30;12.02;;;10.05;;
51148;SDS011;37210;50.058;8.688;2022-09-29T09:57:25;11.45;;;9.82;;
51148;SDS011;37210;50.058;8.688;2022-09-29T10:00:30;10.88;;;9.50;;
51148;SDS011;37210;50.058;8.688;2022-09-29T10:03:05;12.13;;;10.65;;
51148;SDS011;37210;50.058;8.688;2022-09-29T10:05:35;11.35;;;10.20;;
51148;SDS011;37210;50.058;8.688;2022-09-29T10:08:08;11.85;;;10.45;;
51148;SDS011;37210;50.058;8.688;2022-09-29T10:10:46;11.20;;;9.88;;
51148;SDS011;37210;50.058;8.688;2022-09-29T10:13:18;11.37;;;9.37;;
51148;SDS011;37210;50.058;8.688;2022-09-29T10:15:49;11.43;;;9.65;;
51148;SDS011;37210;50.058;8.688;2022-09-29T10:18:27;10.30;;;9.27;;
51148;SDS011;37210;50.058;8.688;2022-09-29T10:21:17;10.98;;;9.73;;
51148;SDS011;37210;50.058;8.688;2022-09-29T10:23:51;10.45;;;8.98;;
51148;SDS011;37210;50.058;8.688;2022-09-29T10:26:21;10.93;;;8.75;;
51148;SDS011;37210;50.058;8.688;2022-09-29T10:28:55;12.75;;;9.60;;
51148;SDS011;37210;50.058;8.688;2022-09-29T10:31:29;9.55;;;8.50;;
51148;SDS011;37210;50.058;8.688;2022-09-29T10:34:12;10.23;;;8.85;;
51148;SDS011;37210;50.058;8.688;2022-09-29T10:36:49;10.10;;;9.10;;
51148;SDS011;37210;50.058;8.688;2022-09-29T10:39:31;10.13;;;9.13;;
51148;SDS011;37210;50.058;8.688;2022-09-29T10:42:16;12.65;;;10.10;;
51148;SDS011;37210;50.058;8.688;2022-09-29T10:44:53;10.52;;;8.73;;
51148;SDS011;37210;50.058;8.688;2022-09-29T10:47:40;9.60;;;8.65;;
51148;SDS011;37210;50.058;8.688;2022-09-29T10:50:36;11.47;;;8.33;;
51148;SDS011;37210;50.058;8.688;2022-09-29T10:53:18;10.90;;;8.15;;
51148;SDS011;37210;50.058;8.688;2022-09-29T10:55:54;9.80;;;8.48;;
51148;SDS011;37210;50.058;8.688;2022-09-29T10:58:27;9.68;;;8.70;;
51148;SDS011;37210;50.058;8.688;2022-09-29T11:01:02;10.15;;;7.90;;
51148;SDS011;37210;50.058;8.688;2022-09-29T11:03:37;8.82;;;7.65;;
51148;SDS011;37210;50.058;8.688;2022-09-29T11:06:12;8.93;;;8.02;;
51148;SDS011;37210;50.058;8.688;2022-09-29T11:08:57;10.20;;;7.75;;
51148;SDS011;37210;50.058;8.688;2022-09-29T11:11:28;8.73;;;7.85;;
51148;SDS011;37210;50.058;8.688;2022-09-29T11:13:57;9.75;;;7.82;;
51148;SDS011;37210;50.058;8.688;2022-09-29T11:16:28;10.20;;;7.63;;
51148;SDS011;37210;50.058;8.688;2022-09-29T11:19:00;10.00;;;7.43;;
51148;SDS011;37210;50.058;8.688;2022-09-29T11:21:53;7.50;;;6.25;;
51148;SDS011;37210;50.058;8.688;2022-09-29T11:28:01;7.38;;;6.68;;
51148;SDS011;37210;50.058;8.688;2022-09-29T11:30:50;8.90;;;7.30;;
51148;SDS011;37210;50.058;8.688;2022-09-29T11:33:36;7.70;;;6.90;;
51148;SDS011;37210;50.058;8.688;2022-09-29T11:36:22;9.23;;;6.55;;
51148;SDS011;37210;50.058;8.688;2022-09-29T11:39:07;7.05;;;6.20;;
51148;SDS011;37210;50.058;8.688;2022-09-29T11:41:55;6.47;;;5.55;;
51148;SDS011;37210;50.058;8.688;2022-09-29T11:44:45;7.30;;;6.60;;
51148;SDS011;37210;50.058;8.688;2022-09-29T11:47:31;7.20;;;6.50;;
51148;SDS011;37210;50.058;8.688;2022-09-29T11:50:22;7.60;;;6.80;;
51148;SDS011;37210;50.058;8.688;2022-09-29T11:56:13;6.80;;;5.50;;
51148;SDS011;37210;50.058;8.688;2022-09-29T11:59:00;6.88;;;5.22;;
51148;SDS011;37210;50.058;8.688;2022-09-29T12:02:16;5.60;;;4.97;;
51148;SDS011;37210;50.058;8.688;2022-09-29T12:05:15;6.95;;;5.43;;
51148;SDS011;37210;50.058;8.688;2022-09-29T12:07:52;6.47;;;5.78;;
51148;SDS011;37210;50.058;8.688;2022-09-29T12:10:46;7.93;;;6.13;;
51148;SDS011;37210;50.058;8.688;2022-09-29T12:13:26;6.97;;;5.53;;
51148;SDS011;37210;50.058;8.688;2022-09-29T12:16:08;5.90;;;5.18;;
51148;SDS011;37210;50.058;8.688;2022-09-29T12:18:43;5.13;;;4.70;;
51148;SDS011;37210;50.058;8.688;2022-09-29T12:21:20;5.90;;;5.22;;
51148;SDS011;37210;50.058;8.688;2022-09-29T12:23:58;5.85;;;5.07;;
51148;SDS011;37210;50.058;8.688;2022-09-29T12:26:33;5.50;;;4.80;;
51148;SDS011;37210;50.058;8.688;2022-09-29T12:29:03;6.60;;;5.93;;
51148;SDS011;37210;50.058;8.688;2022-09-29T12:31:45;8.55;;;5.35;;
51148;SDS011;37210;50.058;8.688;2022-09-29T12:34:18;7.63;;;4.70;;
51148;SDS011;37210;50.058;8.688;2022-09-29T12:36:54;4.65;;;4.22;;
51148;SDS011;37210;50.058;8.688;2022-09-29T12:39:31;4.38;;;3.75;;
51148;SDS011;37210;50.058;8.688;2022-09-29T12:42:24;4.97;;;4.45;;
51148;SDS011;37210;50.058;8.688;2022-09-29T12:45:05;4.53;;;3.63;;
51148;SDS011;37210;50.058;8.688;2022-09-29T12:47:44;4.27;;;3.87;;
51148;SDS011;37210;50.058;8.688;2022-09-29T12:50:21;4.70;;;4.00;;
51148;SDS011;37210;50.058;8.688;2022-09-29T12:52:57;4.72;;;3.88;;
51148;SDS011;37210;50.058;8.688;2022-09-29T12:55:36;3.95;;;3.40;;
51148;SDS011;37210;50.058;8.688;2022-09-29T12:58:14;4.63;;;4.13;;
51148;SDS011;37210;50.058;8.688;2022-09-29T13:00:51;4.90;;;4.40;;
51148;SDS011;37210;50.058;8.688;2022-09-29T13:03:42;4.60;;;3.72;;
51148;SDS011;37210;50.058;8.688;2022-09-29T13:10:20;4.43;;;3.78;;
51148;SDS011;37210;50.058;8.688;2022-09-29T13:13:15;4.35;;;3.95;;
51148;SDS011;37210;50.058;8.688;2022-09-29T13:16:17;3.60;;;3.30;;
51148;SDS011;37210;50.058;8.688;2022-09-29T13:19:27;3.78;;;2.95;;
51148;SDS011;37210;50.058;8.688;2022-09-29T13:26:00;3.88;;;3.38;;
51148;SDS011;37210;50.058;8.688;2022-09-29T13:28:50;3.17;;;2.83;;
51148;SDS011;37210;50.058;8.688;2022-09-29T13:31:23;4.50;;;3.22;;
51148;SDS011;37210;50.058;8.688;2022-09-29T13:33:57;3.35;;;2.92;;
51148;SDS011;37210;50.058;8.688;2022-09-29T13:36:28;3.00;;;2.40;;
51148;SDS011;37210;50.058;8.688;2022-09-29T13:39:02;3.42;;;3.10;;
51148;SDS011;37210;50.058;8.688;2022-09-29T13:41:34;5.57;;;2.63;;
51148;SDS011;37210;50.058;8.688;2022-09-29T13:44:18;3.47;;;1.92;;
51148;SDS011;37210;50.058;8.688;2022-09-29T13:46:50;3.67;;;2.55;;
51148;SDS011;37210;50.058;8.688;2022-09-29T13:49:23;2.25;;;1.98;;
51148;SDS011;37210;50.058;8.688;2022-09-29T13:51:55;4.88;;;3.47;;
51148;SDS011;37210;50.058;8.688;2022-09-29T13:54:35;2.97;;;2.53;;
51148;SDS011;37210;50.058;8.688;2022-09-29T14:03:00;2.80;;;2.30;;
51148;SDS011;37210;50.058;8.688;2022-09-29T14:05:55;2.75;;;2.13;;
51148;SDS011;37210;50.058;8.688;2022-09-29T14:08:39;3.70;;;2.30;;
51148;SDS011;37210;50.058;8.688;2022-09-29T14:11:14;2.63;;;2.33;;
51148;SDS011;37210;50.058;8.688;2022-09-29T14:13:52;2.35;;;1.85;;
51148;SDS011;37210;50.058;8.688;2022-09-29T14:19:23;2.88;;;2.20;;
51148;SDS011;37210;50.058;8.688;2022-09-29T14:22:03;3.30;;;2.08;;
51148;SDS011;37210;50.058;8.688;2022-09-29T14:24:52;2.40;;;2.20;;
51148;SDS011;37210;50.058;8.688;2022-09-29T14:27:25;3.05;;;2.15;;
51148;SDS011;37210;50.058;8.688;2022-09-29T14:29:59;3.03;;;2.42;;
51148;SDS011;37210;50.058;8.688;2022-09-29T14:32:40;3.53;;;2.38;;
51148;SDS011;37210;50.058;8.688;2022-09-29T14:37:47;2.10;;;1.88;;
51148;SDS011;37210;50.058;8.688;2022-09-29T14:40:25;3.58;;;1.90;;
51148;SDS011;37210;50.058;8.688;2022-09-29T14:43:10;3.60;;;2.20;;
51148;SDS011;37210;50.058;8.688;2022-09-29T14:48:45;3.38;;;1.90;;
51148;SDS011;37210;50.058;8.688;2022-09-29T14:51:52;2.88;;;1.88;;
51148;SDS011;37210;50.058;8.688;2022-09-29T14:54:35;3.63;;;2.20;;
51148;SDS011;37210;50.058;8.688;2022-09-29T14:57:30;2.20;;;2.00;;
51148;SDS011;37210;50.058;8.688;2022-09-29T15:00:13;3.47;;;2.10;;
51148;SDS011;37210;50.058;8.688;2022-09-29T15:02:45;2.50;;;1.90;;
51148;SDS011;37210;50.058;8.688;2022-09-29T15:05:24;3.67;;;2.55;;
51148;SDS011;37210;50.058;8.688;2022-09-29T15:07:56;3.15;;;2.10;;
51148;SDS011;37210;50.058;8.688;2022-09-29T15:10:29;2.67;;;2.05;;
51148;SDS011;37210;50.058;8.688;2022-09-29T15:13:15;4.50;;;2.22;;
51148;SDS011;37210;50.058;8.688;2022-09-29T15:15:49;3.38;;;2.13;;
51148;SDS011;37210;50.058;8.688;2022-09-29T15:18:31;3.80;;;2.33;;
51148;SDS011;37210;50.058;8.688;2022-09-29T15:21:20;3.45;;;2.33;;
51148;SDS011;37210;50.058;8.688;2022-09-29T15:24:05;2.60;;;2.28;;
51148;SDS011;37210;50.058;8.688;2022-09-29T15:27:05;3.15;;;1.85;;
51148;SDS011;37210;50.058;8.688;2022-09-29T15:29:40;3.42;;;1.80;;
51148;SDS011;37210;50.058;8.688;2022-09-29T15:32:18;1.90;;;1.73;;
51148;SDS011;37210;50.058;8.688;2022-09-29T15:34:50;2.17;;;1.30;;
51148;SDS011;37210;50.058;8.688;2022-09-29T15:37:28;2.95;;;1.80;;
51148;SDS011;37210;50.058;8.688;2022-09-29T15:40:31;3.22;;;2.30;;
51148;SDS011;37210;50.058;8.688;2022-09-29T15:43:19;3.35;;;1.80;;
51148;SDS011;37210;50.058;8.688;2022-09-29T15:45:51;1.70;;;1.30;;
51148;SDS011;37210;50.058;8.688;2022-09-29T15:48:23;2.30;;;1.35;;
51148;SDS011;37210;50.058;8.688;2022-09-29T15:50:52;3.45;;;2.33;;
51148;SDS011;37210;50.058;8.688;2022-09-29T15:53:25;4.18;;;2.30;;